sensor_id;sensor_type;location;lat;lon;timestamp;temperature;humidity
6672;DHT22;3372;48.690;12.362;2023-03-31T00:01:11;10.80;99.90
6672;DHT22;3372;48.690;12.362;2023-03-31T00:03:37;10.80;99.90
6672;DHT22;3372;48.690;12.362;2023-03-31T00:06:03;10.80;99.90
6672;DHT22;3372;48.690;12.362;2023-03-31T00:08:30;10.70;99.90
6672;DHT22;3372;48.690;12.362;2023-03-31T00:11:01;10.60;99.90
6672;DHT22;3372;48.690;12.362;2023-03-31T00:13:28;10.60;99.90
6672;DHT22;3372;48.690;12.362;2023-03-31T00:15:59;10.60;99.90
6672;DHT22;3372;48.690;12.362;2023-03-31T00:18:25;10.60;99.90
6672;DHT22;3372;48.690;12.362;2023-03-31T00:20:52;10.60;99.90
6672;DHT22;3372;48.690;12.362;2023-03-31T00:23:17;10.50;99.90
6672;DHT22;3372;48.690;12.362;2023-03-31T00:25:53;10.60;99.90
6672;DHT22;3372;48.690;12.362;2023-03-31T00:28:19;10.50;99.90
6672;DHT22;3372;48.690;12.362;2023-03-31T00:30:44;10.50;99.90
6672;DHT22;3372;48.690;12.362;2023-03-31T00:33:12;10.50;99.90
6672;DHT22;3372;48.690;12.362;2023-03-31T00:35:37;10.50;99.90
6672;DHT22;3372;48.690;12.362;2023-03-31T00:38:03;10.50;99.90
6672;DHT22;3372;48.690;12.362;2023-03-31T00:40:30;10.40;99.90
6672;DHT22;3372;48.690;12.362;2023-03-31T00:42:56;10.50;99.90
6672;DHT22;3372;48.690;12.362;2023-03-31T00:45:29;10.50;99.90
6672;DHT22;3372;48.690;12.362;2023-03-31T00:48:10;10.50;99.90
6672;DHT22;3372;48.690;12.362;2023-03-31T00:50:58;10.50;99.90
6672;DHT22;3372;48.690;12.362;2023-03-31T00:53:29;10.50;99.90
6672;DHT22;3372;48.690;12.362;2023-03-31T00:56:01;10.50;99.90
6672;DHT22;3372;48.690;12.362;2023-03-31T00:58:30;10.50;99.90
6672;DHT22;3372;48.690;12.362;2023-03-31T01:00:58;10.50;99.90
6672;DHT22;3372;48.690;12.362;2023-03-31T01:03:25;10.50;99.90
6672;DHT22;3372;48.690;12.362;2023-03-31T01:05:54;10.40;99.90
6672;DHT22;3372;48.690;12.362;2023-03-31T01:08:23;10.40;99.90
6672;DHT22;3372;48.690;12.362;2023-03-31T01:10:53;10.40;99.90
6672;DHT22;3372;48.690;12.362;2023-03-31T01:13:19;10.40;99.90
6672;DHT22;3372;48.690;12.362;2023-03-31T01:15:45;10.40;99.90
6672;DHT22;3372;48.690;12.362;2023-03-31T01:18:12;10.40;99.90
6672;DHT22;3372;48.690;12.362;2023-03-31T01:38:20;10.10;99.90
6672;DHT22;3372;48.690;12.362;2023-03-31T01:41:53;10.10;99.90
6672;DHT22;3372;48.690;12.362;2023-03-31T01:46:53;10.10;99.90
6672;DHT22;3372;48.690;12.362;2023-03-31T01:49:37;10.10;99.90
6672;DHT22;3372;48.690;12.362;2023-03-31T01:52:25;10.20;99.90
6672;DHT22;3372;48.690;12.362;2023-03-31T01:54:59;10.30;99.90
6672;DHT22;3372;48.690;12.362;2023-03-31T01:57:31;10.30;99.90
6672;DHT22;3372;48.690;12.362;2023-03-31T02:00:09;10.20;99.90
6672;DHT22;3372;48.690;12.362;2023-03-31T02:02:48;10.20;99.90
6672;DHT22;3372;48.690;12.362;2023-03-31T02:05:20;10.20;99.90
6672;DHT22;3372;48.690;12.362;2023-03-31T02:10:19;10.20;99.90
6672;DHT22;3372;48.690;12.362;2023-03-31T02:12:46;10.20;99.90
6672;DHT22;3372;48.690;12.362;2023-03-31T02:15:18;10.20;99.90
6672;DHT22;3372;48.690;12.362;2023-03-31T02:17:48;10.30;99.90
6672;DHT22;3372;48.690;12.362;2023-03-31T02:20:17;10.30;99.90
6672;DHT22;3372;48.690;12.362;2023-03-31T02:22:49;10.30;99.90
6672;DHT22;3372;48.690;12.362;2023-03-31T02:25:19;10.40;99.90
6672;DHT22;3372;48.690;12.362;2023-03-31T02:27:50;10.30;99.90
6672;DHT22;3372;48.690;12.362;2023-03-31T02:30:18;10.30;99.90
6672;DHT22;3372;48.690;12.362;2023-03-31T02:32:44;10.30;99.90
6672;DHT22;3372;48.690;12.362;2023-03-31T02:35:16;10.30;99.90
6672;DHT22;3372;48.690;12.362;2023-03-31T02:37:43;10.20;99.90
6672;DHT22;3372;48.690;12.362;2023-03-31T02:40:18;10.20;99.90
6672;DHT22;3372;48.690;12.362;2023-03-31T02:42:44;10.20;99.90
6672;DHT22;3372;48.690;12.362;2023-03-31T02:48:01;10.10;99.90
6672;DHT22;3372;48.690;12.362;2023-03-31T02:50:30;10.20;99.90
6672;DHT22;3372;48.690;12.362;2023-03-31T02:53:03;10.20;99.90
6672;DHT22;3372;48.690;12.362;2023-03-31T02:58:56;10.20;99.90
6672;DHT22;3372;48.690;12.362;2023-03-31T03:01:47;10.20;99.90
6672;DHT22;3372;48.690;12.362;2023-03-31T03:12:40;10.20;99.90
6672;DHT22;3372;48.690;12.362;2023-03-31T03:15:28;10.20;99.90
6672;DHT22;3372;48.690;12.362;2023-03-31T03:17:55;10.20;99.90
6672;DHT22;3372;48.690;12.362;2023-03-31T03:20:21;10.30;99.90
6672;DHT22;3372;48.690;12.362;2023-03-31T03:22:47;10.20;99.90
6672;DHT22;3372;48.690;12.362;2023-03-31T03:25:14;10.20;99.90
6672;DHT22;3372;48.690;12.362;2023-03-31T03:27:42;10.20;99.90
6672;DHT22;3372;48.690;12.362;2023-03-31T03:30:09;10.20;99.90
6672;DHT22;3372;48.690;12.362;2023-03-31T03:32:36;10.20;99.90
6672;DHT22;3372;48.690;12.362;2023-03-31T03:35:04;10.30;99.90
6672;DHT22;3372;48.690;12.362;2023-03-31T03:37:30;10.20;99.90
6672;DHT22;3372;48.690;12.362;2023-03-31T03:39:56;10.30;99.90
6672;DHT22;3372;48.690;12.362;2023-03-31T03:42:21;10.20;99.90
6672;DHT22;3372;48.690;12.362;2023-03-31T03:44:47;10.20;99.90
6672;DHT22;3372;48.690;12.362;2023-03-31T03:47:13;10.10;99.90
6672;DHT22;3372;48.690;12.362;2023-03-31T03:49:39;10.20;99.90
6672;DHT22;3372;48.690;12.362;2023-03-31T03:52:05;10.20;99.90
6672;DHT22;3372;48.690;12.362;2023-03-31T03:54:30;10.20;99.90
6672;DHT22;3372;48.690;12.362;2023-03-31T03:56:56;10.20;99.90
6672;DHT22;3372;48.690;12.362;2023-03-31T03:59:22;10.10;99.90
6672;DHT22;3372;48.690;12.362;2023-03-31T04:01:47;10.20;99.90
6672;DHT22;3372;48.690;12.362;2023-03-31T04:04:13;10.10;99.90
6672;DHT22;3372;48.690;12.362;2023-03-31T04:06:39;10.10;99.90
6672;DHT22;3372;48.690;12.362;2023-03-31T04:09:04;10.10;99.90
6672;DHT22;3372;48.690;12.362;2023-03-31T04:11:30;10.10;99.90
6672;DHT22;3372;48.690;12.362;2023-03-31T04:13:56;10.10;99.90
6672;DHT22;3372;48.690;12.362;2023-03-31T04:16:22;10.10;99.90
6672;DHT22;3372;48.690;12.362;2023-03-31T04:18:53;10.10;99.90
6672;DHT22;3372;48.690;12.362;2023-03-31T04:21:21;10.00;99.90
6672;DHT22;3372;48.690;12.362;2023-03-31T04:23:48;10.10;99.90
6672;DHT22;3372;48.690;12.362;2023-03-31T04:26:16;10.10;99.90
6672;DHT22;3372;48.690;12.362;2023-03-31T04:28:43;10.20;99.90
6672;DHT22;3372;48.690;12.362;2023-03-31T04:31:12;10.20;99.90
6672;DHT22;3372;48.690;12.362;2023-03-31T04:33:52;10.20;99.90
6672;DHT22;3372;48.690;12.362;2023-03-31T04:36:17;10.20;99.90
6672;DHT22;3372;48.690;12.362;2023-03-31T04:38:49;10.20;99.90
6672;DHT22;3372;48.690;12.362;2023-03-31T04:41:22;10.30;99.90
6672;DHT22;3372;48.690;12.362;2023-03-31T04:43:48;10.30;99.90
6672;DHT22;3372;48.690;12.362;2023-03-31T04:46:13;10.30;99.90
6672;DHT22;3372;48.690;12.362;2023-03-31T04:48:39;10.30;99.90
6672;DHT22;3372;48.690;12.362;2023-03-31T04:51:05;10.30;99.90
6672;DHT22;3372;48.690;12.362;2023-03-31T04:53:31;10.30;99.90
6672;DHT22;3372;48.690;12.362;2023-03-31T04:55:56;10.40;99.90
6672;DHT22;3372;48.690;12.362;2023-03-31T04:58:22;10.40;99.90
6672;DHT22;3372;48.690;12.362;2023-03-31T05:00:48;10.40;99.90
6672;DHT22;3372;48.690;12.362;2023-03-31T05:03:14;10.40;99.90
6672;DHT22;3372;48.690;12.362;2023-03-31T05:05:39;10.30;99.90
6672;DHT22;3372;48.690;12.362;2023-03-31T05:08:05;10.20;99.90
6672;DHT22;3372;48.690;12.362;2023-03-31T05:10:30;10.30;99.90
6672;DHT22;3372;48.690;12.362;2023-03-31T05:12:56;10.40;99.90
6672;DHT22;3372;48.690;12.362;2023-03-31T05:15:22;10.30;99.90
6672;DHT22;3372;48.690;12.362;2023-03-31T05:17:49;10.30;99.90
6672;DHT22;3372;48.690;12.362;2023-03-31T05:20:15;10.30;99.90
6672;DHT22;3372;48.690;12.362;2023-03-31T05:22:41;10.30;99.90
6672;DHT22;3372;48.690;12.362;2023-03-31T05:25:08;10.30;99.90
6672;DHT22;3372;48.690;12.362;2023-03-31T05:27:34;10.30;99.90
6672;DHT22;3372;48.690;12.362;2023-03-31T05:30:01;10.30;99.90
6672;DHT22;3372;48.690;12.362;2023-03-31T05:32:27;10.30;99.90
6672;DHT22;3372;48.690;12.362;2023-03-31T05:34:53;10.30;99.90
6672;DHT22;3372;48.690;12.362;2023-03-31T05:37:23;10.20;99.90
6672;DHT22;3372;48.690;12.362;2023-03-31T05:39:49;10.20;99.90
6672;DHT22;3372;48.690;12.362;2023-03-31T05:42:15;10.20;99.90
6672;DHT22;3372;48.690;12.362;2023-03-31T05:44:41;10.10;99.90
6672;DHT22;3372;48.690;12.362;2023-03-31T05:47:07;10.10;99.90
6672;DHT22;3372;48.690;12.362;2023-03-31T05:49:32;10.10;99.90
6672;DHT22;3372;48.690;12.362;2023-03-31T05:51:58;10.20;99.90
6672;DHT22;3372;48.690;12.362;2023-03-31T05:54:23;10.10;99.90
6672;DHT22;3372;48.690;12.362;2023-03-31T05:56:49;10.10;99.90
6672;DHT22;3372;48.690;12.362;2023-03-31T05:59:15;10.10;99.90
6672;DHT22;3372;48.690;12.362;2023-03-31T06:01:41;10.10;99.90
6672;DHT22;3372;48.690;12.362;2023-03-31T06:04:06;10.20;99.90
6672;DHT22;3372;48.690;12.362;2023-03-31T06:06:32;10.20;99.90
6672;DHT22;3372;48.690;12.362;2023-03-31T06:08:59;10.20;99.90
6672;DHT22;3372;48.690;12.362;2023-03-31T06:11:25;10.30;99.90
6672;DHT22;3372;48.690;12.362;2023-03-31T06:13:51;10.30;99.90
6672;DHT22;3372;48.690;12.362;2023-03-31T06:16:17;10.20;99.90
6672;DHT22;3372;48.690;12.362;2023-03-31T06:18:43;10.20;99.90
6672;DHT22;3372;48.690;12.362;2023-03-31T06:21:12;10.20;99.90
6672;DHT22;3372;48.690;12.362;2023-03-31T06:23:38;10.20;99.90
6672;DHT22;3372;48.690;12.362;2023-03-31T06:26:07;10.30;99.90
6672;DHT22;3372;48.690;12.362;2023-03-31T06:28:36;10.20;99.90
6672;DHT22;3372;48.690;12.362;2023-03-31T06:31:07;10.30;99.90
6672;DHT22;3372;48.690;12.362;2023-03-31T06:33:33;10.30;99.90
6672;DHT22;3372;48.690;12.362;2023-03-31T06:35:59;10.30;99.90
6672;DHT22;3372;48.690;12.362;2023-03-31T06:38:26;10.30;99.90
6672;DHT22;3372;48.690;12.362;2023-03-31T06:40:53;10.30;99.90
6672;DHT22;3372;48.690;12.362;2023-03-31T06:43:18;10.40;99.90
6672;DHT22;3372;48.690;12.362;2023-03-31T06:45:45;10.50;99.90
6672;DHT22;3372;48.690;12.362;2023-03-31T06:48:11;10.60;99.90
6672;DHT22;3372;48.690;12.362;2023-03-31T06:50:38;10.60;99.90
6672;DHT22;3372;48.690;12.362;2023-03-31T06:53:04;10.60;99.90
6672;DHT22;3372;48.690;12.362;2023-03-31T06:55:29;10.50;99.90
6672;DHT22;3372;48.690;12.362;2023-03-31T06:57:55;10.60;99.90
6672;DHT22;3372;48.690;12.362;2023-03-31T07:00:21;10.60;99.90
6672;DHT22;3372;48.690;12.362;2023-03-31T07:02:46;10.60;99.90
6672;DHT22;3372;48.690;12.362;2023-03-31T07:05:12;10.70;99.90
6672;DHT22;3372;48.690;12.362;2023-03-31T07:07:38;10.70;99.90
6672;DHT22;3372;48.690;12.362;2023-03-31T07:10:03;10.70;99.90
6672;DHT22;3372;48.690;12.362;2023-03-31T07:12:31;10.70;99.90
6672;DHT22;3372;48.690;12.362;2023-03-31T07:14:58;10.80;99.90
6672;DHT22;3372;48.690;12.362;2023-03-31T07:17:23;10.80;99.90
6672;DHT22;3372;48.690;12.362;2023-03-31T07:19:49;10.80;99.90
6672;DHT22;3372;48.690;12.362;2023-03-31T07:22:18;10.80;99.90
6672;DHT22;3372;48.690;12.362;2023-03-31T07:24:43;10.90;99.90
6672;DHT22;3372;48.690;12.362;2023-03-31T07:27:09;10.90;99.90
6672;DHT22;3372;48.690;12.362;2023-03-31T07:29:35;10.90;99.90
6672;DHT22;3372;48.690;12.362;2023-03-31T07:32:00;10.90;99.90
6672;DHT22;3372;48.690;12.362;2023-03-31T07:34:26;11.00;99.90
6672;DHT22;3372;48.690;12.362;2023-03-31T07:36:54;11.00;99.90
6672;DHT22;3372;48.690;12.362;2023-03-31T07:39:20;11.00;99.90
6672;DHT22;3372;48.690;12.362;2023-03-31T07:41:46;11.00;99.90
6672;DHT22;3372;48.690;12.362;2023-03-31T07:44:11;11.00;99.90
6672;DHT22;3372;48.690;12.362;2023-03-31T07:46:38;11.00;99.90
6672;DHT22;3372;48.690;12.362;2023-03-31T07:49:04;11.00;99.90
6672;DHT22;3372;48.690;12.362;2023-03-31T07:51:29;11.00;99.90
6672;DHT22;3372;48.690;12.362;2023-03-31T07:53:55;11.00;99.90
6672;DHT22;3372;48.690;12.362;2023-03-31T07:56:22;11.00;99.90
6672;DHT22;3372;48.690;12.362;2023-03-31T07:58:49;11.00;99.90
6672;DHT22;3372;48.690;12.362;2023-03-31T08:01:17;11.00;99.90
6672;DHT22;3372;48.690;12.362;2023-03-31T08:03:47;11.00;99.90
6672;DHT22;3372;48.690;12.362;2023-03-31T08:06:21;10.90;99.90
6672;DHT22;3372;48.690;12.362;2023-03-31T08:08:48;10.90;99.90
6672;DHT22;3372;48.690;12.362;2023-03-31T08:11:13;10.90;99.90
6672;DHT22;3372;48.690;12.362;2023-03-31T08:13:39;10.90;99.90
6672;DHT22;3372;48.690;12.362;2023-03-31T08:16:05;10.80;99.90
6672;DHT22;3372;48.690;12.362;2023-03-31T08:18:30;10.80;99.90
6672;DHT22;3372;48.690;12.362;2023-03-31T08:20:56;10.70;99.90
6672;DHT22;3372;48.690;12.362;2023-03-31T08:23:21;10.80;99.90
6672;DHT22;3372;48.690;12.362;2023-03-31T08:25:47;10.80;99.90
6672;DHT22;3372;48.690;12.362;2023-03-31T08:28:12;10.80;99.90
6672;DHT22;3372;48.690;12.362;2023-03-31T08:30:39;10.90;99.90
6672;DHT22;3372;48.690;12.362;2023-03-31T08:33:05;10.80;99.90
6672;DHT22;3372;48.690;12.362;2023-03-31T08:35:34;10.90;99.90
6672;DHT22;3372;48.690;12.362;2023-03-31T08:38:00;11.00;99.90
6672;DHT22;3372;48.690;12.362;2023-03-31T08:40:27;11.00;99.90
6672;DHT22;3372;48.690;12.362;2023-03-31T08:45:40;11.10;99.90
6672;DHT22;3372;48.690;12.362;2023-03-31T08:48:24;11.20;99.90
6672;DHT22;3372;48.690;12.362;2023-03-31T08:51:17;11.20;99.90
6672;DHT22;3372;48.690;12.362;2023-03-31T08:53:50;11.30;99.90
6672;DHT22;3372;48.690;12.362;2023-03-31T08:56:19;11.20;99.90
6672;DHT22;3372;48.690;12.362;2023-03-31T08:58:48;11.30;99.90
6672;DHT22;3372;48.690;12.362;2023-03-31T09:01:48;11.40;99.90
6672;DHT22;3372;48.690;12.362;2023-03-31T09:16:13;11.40;99.90
6672;DHT22;3372;48.690;12.362;2023-03-31T09:18:40;11.40;99.90
6672;DHT22;3372;48.690;12.362;2023-03-31T09:24:26;11.60;99.90
6672;DHT22;3372;48.690;12.362;2023-03-31T09:27:00;11.60;99.90
6672;DHT22;3372;48.690;12.362;2023-03-31T09:29:45;11.60;99.90
6672;DHT22;3372;48.690;12.362;2023-03-31T09:34:44;11.70;99.90
6672;DHT22;3372;48.690;12.362;2023-03-31T09:37:11;11.70;99.90
6672;DHT22;3372;48.690;12.362;2023-03-31T09:39:38;11.70;99.90
6672;DHT22;3372;48.690;12.362;2023-03-31T09:42:04;11.70;99.90
6672;DHT22;3372;48.690;12.362;2023-03-31T09:44:50;11.90;99.90
6672;DHT22;3372;48.690;12.362;2023-03-31T09:47:30;11.80;99.90
6672;DHT22;3372;48.690;12.362;2023-03-31T09:49:56;11.80;99.90
6672;DHT22;3372;48.690;12.362;2023-03-31T09:52:33;11.80;99.90
6672;DHT22;3372;48.690;12.362;2023-03-31T09:55:01;11.80;99.90
6672;DHT22;3372;48.690;12.362;2023-03-31T09:57:30;11.90;99.90
6672;DHT22;3372;48.690;12.362;2023-03-31T10:00:25;12.00;99.90
6672;DHT22;3372;48.690;12.362;2023-03-31T10:02:54;12.30;99.90
6672;DHT22;3372;48.690;12.362;2023-03-31T10:05:27;12.70;99.90
6672;DHT22;3372;48.690;12.362;2023-03-31T10:11:07;13.00;99.90
6672;DHT22;3372;48.690;12.362;2023-03-31T10:18:54;13.10;99.90
6672;DHT22;3372;48.690;12.362;2023-03-31T10:21:24;13.20;99.90
6672;DHT22;3372;48.690;12.362;2023-03-31T10:23:50;13.40;99.90
6672;DHT22;3372;48.690;12.362;2023-03-31T10:26:19;13.30;99.90
6672;DHT22;3372;48.690;12.362;2023-03-31T10:28:47;13.50;99.90
6672;DHT22;3372;48.690;12.362;2023-03-31T10:31:17;13.60;99.90
6672;DHT22;3372;48.690;12.362;2023-03-31T10:33:47;13.80;99.90
6672;DHT22;3372;48.690;12.362;2023-03-31T10:36:24;13.90;99.90
6672;DHT22;3372;48.690;12.362;2023-03-31T10:38:51;14.10;99.90
6672;DHT22;3372;48.690;12.362;2023-03-31T10:41:22;14.20;99.90
6672;DHT22;3372;48.690;12.362;2023-03-31T10:43:51;14.30;99.90
6672;DHT22;3372;48.690;12.362;2023-03-31T10:46:18;14.50;99.90
6672;DHT22;3372;48.690;12.362;2023-03-31T10:48:44;14.60;99.90
6672;DHT22;3372;48.690;12.362;2023-03-31T10:53:50;14.50;99.90
6672;DHT22;3372;48.690;12.362;2023-03-31T10:56:39;14.70;99.90
6672;DHT22;3372;48.690;12.362;2023-03-31T11:02:33;14.80;99.90
6672;DHT22;3372;48.690;12.362;2023-03-31T11:10:36;14.90;99.90
6672;DHT22;3372;48.690;12.362;2023-03-31T11:18:35;15.00;99.90
6672;DHT22;3372;48.690;12.362;2023-03-31T11:21:26;14.90;99.90
6672;DHT22;3372;48.690;12.362;2023-03-31T11:24:09;15.20;99.90
6672;DHT22;3372;48.690;12.362;2023-03-31T11:29:47;15.50;99.90
6672;DHT22;3372;48.690;12.362;2023-03-31T11:40:58;15.40;92.70
6672;DHT22;3372;48.690;12.362;2023-03-31T11:43:30;15.30;91.50
6672;DHT22;3372;48.690;12.362;2023-03-31T11:46:00;15.20;88.50
6672;DHT22;3372;48.690;12.362;2023-03-31T11:51:13;15.30;89.10
6672;DHT22;3372;48.690;12.362;2023-03-31T11:53:42;15.40;85.90
6672;DHT22;3372;48.690;12.362;2023-03-31T11:56:11;15.40;88.20
6672;DHT22;3372;48.690;12.362;2023-03-31T11:58:46;15.40;87.40
6672;DHT22;3372;48.690;12.362;2023-03-31T12:01:30;15.40;79.70
6672;DHT22;3372;48.690;12.362;2023-03-31T12:04:32;15.30;76.80
6672;DHT22;3372;48.690;12.362;2023-03-31T12:07:33;15.30;81.80
6672;DHT22;3372;48.690;12.362;2023-03-31T12:12:58;15.20;80.00
6672;DHT22;3372;48.690;12.362;2023-03-31T12:15:41;15.40;86.70
6672;DHT22;3372;48.690;12.362;2023-03-31T12:18:15;15.50;84.60
6672;DHT22;3372;48.690;12.362;2023-03-31T12:20:49;15.60;86.30
6672;DHT22;3372;48.690;12.362;2023-03-31T12:23:22;15.70;84.20
6672;DHT22;3372;48.690;12.362;2023-03-31T12:26:49;15.70;72.90
6672;DHT22;3372;48.690;12.362;2023-03-31T12:28:48;15.80;77.50
6672;DHT22;3372;48.690;12.362;2023-03-31T12:31:22;15.80;81.30
6672;DHT22;3372;48.690;12.362;2023-03-31T12:34:15;15.90;78.80
6672;DHT22;3372;48.690;12.362;2023-03-31T12:37:34;15.90;74.30
6672;DHT22;3372;48.690;12.362;2023-03-31T12:54:28;16.00;79.10
6672;DHT22;3372;48.690;12.362;2023-03-31T12:57:11;16.20;77.40
6672;DHT22;3372;48.690;12.362;2023-03-31T12:59:43;16.30;77.50
6672;DHT22;3372;48.690;12.362;2023-03-31T13:04:35;16.30;77.10
6672;DHT22;3372;48.690;12.362;2023-03-31T13:07:02;16.40;76.80
6672;DHT22;3372;48.690;12.362;2023-03-31T13:09:45;16.40;73.00
6672;DHT22;3372;48.690;12.362;2023-03-31T13:12:25;16.20;68.80
6672;DHT22;3372;48.690;12.362;2023-03-31T13:14:54;16.10;73.90
6672;DHT22;3372;48.690;12.362;2023-03-31T13:17:26;15.80;72.60
6672;DHT22;3372;48.690;12.362;2023-03-31T13:19:54;15.60;75.10
6672;DHT22;3372;48.690;12.362;2023-03-31T13:22:34;15.50;71.50
6672;DHT22;3372;48.690;12.362;2023-03-31T13:27:55;15.50;79.00
6672;DHT22;3372;48.690;12.362;2023-03-31T13:33:13;15.10;77.90
6672;DHT22;3372;48.690;12.362;2023-03-31T13:35:42;14.90;83.20
6672;DHT22;3372;48.690;12.362;2023-03-31T13:52:02;14.60;90.50
6672;DHT22;3372;48.690;12.362;2023-03-31T13:57:04;14.50;91.60
6672;DHT22;3372;48.690;12.362;2023-03-31T14:03:25;14.50;91.70
6672;DHT22;3372;48.690;12.362;2023-03-31T14:11:16;14.00;87.10
6672;DHT22;3372;48.690;12.362;2023-03-31T14:13:41;13.90;83.70
6672;DHT22;3372;48.690;12.362;2023-03-31T14:16:07;13.70;78.50
6672;DHT22;3372;48.690;12.362;2023-03-31T14:18:36;13.50;72.50
6672;DHT22;3372;48.690;12.362;2023-03-31T14:21:27;13.70;78.50
6672;DHT22;3372;48.690;12.362;2023-03-31T14:24:17;13.90;78.90
6672;DHT22;3372;48.690;12.362;2023-03-31T14:29:49;13.70;75.90
6672;DHT22;3372;48.690;12.362;2023-03-31T14:32:28;13.40;70.00
6672;DHT22;3372;48.690;12.362;2023-03-31T14:35:01;13.40;74.20
6672;DHT22;3372;48.690;12.362;2023-03-31T14:37:29;13.50;76.30
6672;DHT22;3372;48.690;12.362;2023-03-31T14:39:56;13.40;76.60
6672;DHT22;3372;48.690;12.362;2023-03-31T14:42:37;13.50;76.70
6672;DHT22;3372;48.690;12.362;2023-03-31T14:45:10;13.60;77.90
6672;DHT22;3372;48.690;12.362;2023-03-31T14:47:39;13.60;77.80
6672;DHT22;3372;48.690;12.362;2023-03-31T14:50:15;13.60;78.30
6672;DHT22;3372;48.690;12.362;2023-03-31T14:52:51;13.50;75.20
6672;DHT22;3372;48.690;12.362;2023-03-31T14:55:20;13.70;77.70
6672;DHT22;3372;48.690;12.362;2023-03-31T14:57:47;13.60;75.70
6672;DHT22;3372;48.690;12.362;2023-03-31T15:00:26;13.60;73.50
6672;DHT22;3372;48.690;12.362;2023-03-31T15:02:52;13.80;74.30
6672;DHT22;3372;48.690;12.362;2023-03-31T15:05:28;14.00;77.10
6672;DHT22;3372;48.690;12.362;2023-03-31T15:08:05;14.00;76.00
6672;DHT22;3372;48.690;12.362;2023-03-31T15:10:41;14.00;72.90
6672;DHT22;3372;48.690;12.362;2023-03-31T15:13:19;13.90;71.10
6672;DHT22;3372;48.690;12.362;2023-03-31T15:15:45;13.80;70.00
6672;DHT22;3372;48.690;12.362;2023-03-31T15:18:12;14.00;74.50
6672;DHT22;3372;48.690;12.362;2023-03-31T15:20:41;14.20;72.00
6672;DHT22;3372;48.690;12.362;2023-03-31T15:23:27;14.20;69.30
6672;DHT22;3372;48.690;12.362;2023-03-31T15:26:04;14.40;66.50
6672;DHT22;3372;48.690;12.362;2023-03-31T15:28:48;14.50;69.40
6672;DHT22;3372;48.690;12.362;2023-03-31T15:31:15;14.40;62.70
6672;DHT22;3372;48.690;12.362;2023-03-31T15:33:41;14.40;67.10
6672;DHT22;3372;48.690;12.362;2023-03-31T15:36:07;14.40;67.70
6672;DHT22;3372;48.690;12.362;2023-03-31T15:38:35;14.40;66.90
6672;DHT22;3372;48.690;12.362;2023-03-31T15:41:01;14.30;63.70
6672;DHT22;3372;48.690;12.362;2023-03-31T15:43:31;14.30;64.20
6672;DHT22;3372;48.690;12.362;2023-03-31T15:46:09;14.30;65.30
6672;DHT22;3372;48.690;12.362;2023-03-31T15:48:47;14.30;68.60
6672;DHT22;3372;48.690;12.362;2023-03-31T15:53:46;14.20;57.20
6672;DHT22;3372;48.690;12.362;2023-03-31T15:56:40;14.10;62.70
6672;DHT22;3372;48.690;12.362;2023-03-31T15:59:21;14.10;60.70
6672;DHT22;3372;48.690;12.362;2023-03-31T16:01:48;14.20;61.70
6672;DHT22;3372;48.690;12.362;2023-03-31T16:04:15;14.20;61.70
6672;DHT22;3372;48.690;12.362;2023-03-31T16:09:22;14.20;58.60
6672;DHT22;3372;48.690;12.362;2023-03-31T16:11:52;14.10;57.40
6672;DHT22;3372;48.690;12.362;2023-03-31T16:17:00;14.10;61.10
6672;DHT22;3372;48.690;12.362;2023-03-31T16:19:31;14.30;63.70
6672;DHT22;3372;48.690;12.362;2023-03-31T16:22:02;14.30;63.70
6672;DHT22;3372;48.690;12.362;2023-03-31T16:24:31;14.10;59.10
6672;DHT22;3372;48.690;12.362;2023-03-31T16:27:02;14.20;63.20
6672;DHT22;3372;48.690;12.362;2023-03-31T16:29:33;14.10;60.10
6672;DHT22;3372;48.690;12.362;2023-03-31T16:32:17;14.00;60.90
6672;DHT22;3372;48.690;12.362;2023-03-31T16:35:00;14.00;61.10
6672;DHT22;3372;48.690;12.362;2023-03-31T16:37:26;14.00;62.80
6672;DHT22;3372;48.690;12.362;2023-03-31T16:39:52;14.00;64.40
6672;DHT22;3372;48.690;12.362;2023-03-31T16:42:19;14.00;63.20
6672;DHT22;3372;48.690;12.362;2023-03-31T16:44:45;14.00;62.80
6672;DHT22;3372;48.690;12.362;2023-03-31T16:47:15;13.90;65.30
6672;DHT22;3372;48.690;12.362;2023-03-31T16:49:40;13.90;62.00
6672;DHT22;3372;48.690;12.362;2023-03-31T16:52:06;13.90;63.50
6672;DHT22;3372;48.690;12.362;2023-03-31T16:54:34;13.80;63.70
6672;DHT22;3372;48.690;12.362;2023-03-31T16:57:00;13.80;65.90
6672;DHT22;3372;48.690;12.362;2023-03-31T16:59:26;13.70;66.40
6672;DHT22;3372;48.690;12.362;2023-03-31T17:01:52;13.60;69.50
6672;DHT22;3372;48.690;12.362;2023-03-31T17:04:17;13.60;70.60
6672;DHT22;3372;48.690;12.362;2023-03-31T17:06:44;13.40;74.00
6672;DHT22;3372;48.690;12.362;2023-03-31T17:09:09;13.30;76.20
6672;DHT22;3372;48.690;12.362;2023-03-31T17:11:35;13.40;76.80
6672;DHT22;3372;48.690;12.362;2023-03-31T17:14:01;13.20;78.50
6672;DHT22;3372;48.690;12.362;2023-03-31T17:16:26;13.20;77.90
6672;DHT22;3372;48.690;12.362;2023-03-31T17:18:52;13.10;78.80
6672;DHT22;3372;48.690;12.362;2023-03-31T17:21:18;13.20;79.20
6672;DHT22;3372;48.690;12.362;2023-03-31T17:23:44;13.00;78.50
6672;DHT22;3372;48.690;12.362;2023-03-31T17:26:12;13.00;77.60
6672;DHT22;3372;48.690;12.362;2023-03-31T17:28:38;13.00;77.90
6672;DHT22;3372;48.690;12.362;2023-03-31T17:31:14;12.80;77.50
6672;DHT22;3372;48.690;12.362;2023-03-31T17:33:41;12.90;77.60
6672;DHT22;3372;48.690;12.362;2023-03-31T17:36:08;12.90;77.30
6672;DHT22;3372;48.690;12.362;2023-03-31T17:38:34;12.90;76.90
6672;DHT22;3372;48.690;12.362;2023-03-31T17:41:07;12.90;76.80
6672;DHT22;3372;48.690;12.362;2023-03-31T17:43:33;12.90;76.80
6672;DHT22;3372;48.690;12.362;2023-03-31T17:46:07;12.80;76.40
6672;DHT22;3372;48.690;12.362;2023-03-31T17:48:35;12.80;76.40
6672;DHT22;3372;48.690;12.362;2023-03-31T17:51:04;12.80;76.20
6672;DHT22;3372;48.690;12.362;2023-03-31T17:53:31;12.80;75.70
6672;DHT22;3372;48.690;12.362;2023-03-31T17:55:57;12.70;77.10
6672;DHT22;3372;48.690;12.362;2023-03-31T17:58:22;12.70;75.90
6672;DHT22;3372;48.690;12.362;2023-03-31T18:00:48;12.70;75.90
6672;DHT22;3372;48.690;12.362;2023-03-31T18:03:13;12.60;76.30
6672;DHT22;3372;48.690;12.362;2023-03-31T18:05:39;12.50;76.10
6672;DHT22;3372;48.690;12.362;2023-03-31T18:08:05;12.50;76.30
6672;DHT22;3372;48.690;12.362;2023-03-31T18:10:32;12.50;76.10
6672;DHT22;3372;48.690;12.362;2023-03-31T18:12:57;12.30;76.60
6672;DHT22;3372;48.690;12.362;2023-03-31T18:15:24;12.20;77.10
6672;DHT22;3372;48.690;12.362;2023-03-31T18:17:50;12.30;77.50
6672;DHT22;3372;48.690;12.362;2023-03-31T18:20:16;12.30;77.10
6672;DHT22;3372;48.690;12.362;2023-03-31T18:22:41;12.40;75.70
6672;DHT22;3372;48.690;12.362;2023-03-31T18:25:08;12.30;76.00
6672;DHT22;3372;48.690;12.362;2023-03-31T18:27:34;12.10;75.00
6672;DHT22;3372;48.690;12.362;2023-03-31T18:29:59;12.10;75.00
6672;DHT22;3372;48.690;12.362;2023-03-31T18:32:25;12.10;74.40
6672;DHT22;3372;48.690;12.362;2023-03-31T18:34:51;12.10;73.80
6672;DHT22;3372;48.690;12.362;2023-03-31T18:37:17;12.10;73.70
6672;DHT22;3372;48.690;12.362;2023-03-31T18:39:42;12.00;72.70
6672;DHT22;3372;48.690;12.362;2023-03-31T18:42:08;11.90;71.30